Time;durP1;ratioP1;P1;durP2;ratioP2;P2;SDS_P1;SDS_P2;PMS_P1;PMS_P2;Temp;Humidity;BMP_temperature;BMP_pressure;BME280_temperature;BME280_humidity;BME280_pressure;Samples;Min_cycle;Max_cycle;Signal;HPM_P1;HPM_P2
2023/06/30 00:01:58;;;;;;;3.20;1.10;;;14.50;99.90;;;13.83;100.00;101593.88;4186419;28;20028;-76
2023/06/30 00:03:59;;;;;;;3.85;1.60;;;14.40;99.90;;;13.82;100.00;101598.38;4186173;28;20025;-76
2023/06/30 00:06:00;;;;;;;5.72;1.48;;;14.40;99.90;;;13.79;100.00;101592.56;4186194;28;20037;-75
2023/06/30 00:08:01;;;;;;;7.60;1.77;;;14.40;99.90;;;13.80;100.00;101599.50;4201639;28;20032;-76
2023/06/30 00:10:03;;;;;;;3.90;1.58;;;14.30;99.90;;;13.82;100.00;101594.91;4202244;28;20060;-75
2023/06/30 00:12:04;;;;;;;4.13;1.65;;;14.30;99.90;;;13.81;100.00;101586.09;4201782;28;20055;-75
2023/06/30 00:14:05;;;;;;;6.00;1.13;;;14.40;99.90;;;13.83;100.00;101593.88;4168652;28;20018;-76
2023/06/30 00:16:06;;;;;;;5.07;1.48;;;14.30;99.90;;;13.82;100.00;101592.25;4186471;28;20446;-75
2023/06/30 00:18:07;;;;;;;5.95;1.52;;;14.40;99.90;;;13.77;100.00;101591.88;4168627;28;20030;-75
2023/06/30 00:20:09;;;;;;;5.68;1.30;;;14.40;99.90;;;13.70;100.00;101586.38;4185974;28;20041;-75
2023/06/30 00:22:11;;;;;;;5.78;1.85;;;14.30;99.90;;;13.78;100.00;101596.19;4168524;28;20013;-76
2023/06/30 00:24:13;;;;;;;6.57;1.38;;;14.30;99.90;;;13.74;100.00;101592.19;4185318;28;20036;-75
2023/06/30 00:26:14;;;;;;;4.97;1.55;;;14.30;99.90;;;13.67;100.00;101596.47;4186216;28;20055;-75
2023/06/30 00:28:14;;;;;;;5.47;1.83;;;14.30;99.90;;;13.64;100.00;101594.94;4201601;28;20020;-75
2023/06/30 00:30:15;;;;;;;6.47;1.88;;;14.20;99.90;;;13.61;100.00;101599.72;4184820;28;20017;-76
2023/06/30 00:32:16;;;;;;;4.15;1.85;;;14.20;99.90;;;13.47;100.00;101576.44;4186300;28;20029;-75
2023/06/30 00:34:17;;;;;;;6.38;1.50;;;14.20;99.90;;;13.54;100.00;101593.38;4168324;28;20048;-76
2023/06/30 00:36:18;;;;;;;8.00;2.00;;;14.10;99.90;;;13.53;100.00;101583.78;4152222;28;20041;-75
2023/06/30 00:38:19;;;;;;;5.53;1.52;;;14.10;99.90;;;13.53;100.00;101594.38;4168213;28;20082;-76
2023/06/30 00:40:20;;;;;;;6.15;1.45;;;14.10;99.90;;;13.52;100.00;101601.50;4168668;28;20021;-75
2023/06/30 00:42:21;;;;;;;4.68;1.35;;;14.10;99.90;;;13.42;100.00;101586.66;4186027;28;20052;-76
2023/06/30 00:44:22;;;;;;;5.13;1.63;;;14.10;99.90;;;13.49;100.00;101595.66;4168334;28;20138;-75
2023/06/30 00:46:23;;;;;;;6.80;1.80;;;14.00;99.90;;;13.43;100.00;101585.66;4185739;28;20032;-75
2023/06/30 00:48:24;;;;;;;5.57;1.90;;;14.00;99.90;;;13.43;100.00;101588.31;4168079;28;20029;-76
2023/06/30 00:50:25;;;;;;;5.93;1.30;;;14.00;99.90;;;13.33;100.00;101572.50;4185939;28;20040;-75
2023/06/30 00:52:26;;;;;;;5.30;1.38;;;14.00;99.90;;;13.38;100.00;101588.75;4184590;28;20036;-76
2023/06/30 00:54:27;;;;;;;3.20;1.42;;;13.90;99.90;;;13.35;100.00;101583.78;4185796;28;20412;-75
2023/06/30 00:56:28;;;;;;;3.70;1.55;;;13.90;99.90;;;13.30;100.00;101571.00;4167980;28;20057;-75
2023/06/30 00:58:29;;;;;;;3.75;1.33;;;13.90;99.90;;;13.25;100.00;101573.28;4185861;28;20474;-75
2023/06/30 01:00:30;;;;;;;4.03;1.27;;;13.90;99.90;;;13.29;100.00;101587.03;4185915;28;20033;-75
2023/06/30 01:02:35;;;;;;;3.55;1.45;;;13.90;99.90;;;13.25;100.00;101580.38;4185555;28;20024;-75
2023/06/30 01:05:09;;;;;;;5.25;1.45;;;13.80;99.90;;;13.25;100.00;101577.75;4200805;28;20062;-75
2023/06/30 01:07:33;;;;;;;3.45;1.85;;;13.80;99.90;;;13.14;100.00;101570.84;4185346;28;20027;-76
2023/06/30 01:09:42;;;;;;;4.68;1.60;;;13.80;99.90;;;13.09;100.00;101556.41;4174891;28;20025;-76
2023/06/30 01:11:43;;;;;;;6.78;1.30;;;13.70;99.90;;;13.14;100.00;101564.75;4168529;28;20612;-76
2023/06/30 01:13:46;;;;;;;4.88;1.30;;;13.70;99.90;;;13.12;100.00;101562.22;4185442;28;20143;-76
2023/06/30 01:15:48;;;;;;;3.75;1.83;;;13.70;99.90;;;13.07;100.00;101563.63;4185606;28;20036;-76
2023/06/30 01:17:56;;;;;;;9.90;2.05;;;13.70;99.90;;;13.01;100.00;101551.00;4167554;28;20097;-75
2023/06/30 01:19:59;;;;;;;5.20;1.52;;;13.60;99.90;;;12.99;100.00;101561.72;4167755;28;20046;-75
2023/06/30 01:22:13;;;;;;;4.43;1.80;;;13.60;99.90;;;12.98;100.00;101564.56;4167651;28;20056;-76
2023/06/30 01:24:17;;;;;;;6.33;1.60;;;13.50;99.90;;;12.96;100.00;101559.38;4167968;28;20112;-76
2023/06/30 01:26:21;;;;;;;7.45;1.85;;;13.50;99.90;;;12.88;100.00;101551.38;4151557;28;20257;-76
2023/06/30 01:28:22;;;;;;;5.33;1.20;;;13.50;99.90;;;12.89;100.00;101555.69;4167627;28;20061;-75
2023/06/30 01:30:23;;;;;;;5.22;1.70;;;13.50;99.90;;;12.83;100.00;101550.16;4169098;28;20032;-75
2023/06/30 01:32:25;;;;;;;8.35;2.10;;;13.50;99.90;;;12.77;100.00;101533.91;4167773;28;20049;-75
2023/06/30 01:34:26;;;;;;;5.55;1.95;;;13.50;99.90;;;12.83;100.00;101551.00;4167606;28;20398;-76
2023/06/30 01:36:27;;;;;;;5.60;1.88;;;13.40;99.90;;;12.79;100.00;101557.56;4150925;28;20040;-76
2023/06/30 01:38:28;;;;;;;6.10;2.50;;;13.40;99.90;;;12.74;100.00;101552.75;4167837;28;20139;-76
2023/06/30 01:40:30;;;;;;;2.90;1.27;;;13.40;99.90;;;12.66;100.00;101544.69;4168785;28;20025;-75
2023/06/30 01:42:31;;;;;;;8.35;2.33;;;13.30;99.90;;;12.56;100.00;101529.88;4167428;28;20021;-76
2023/06/30 01:44:36;;;;;;;4.82;1.60;;;13.30;99.90;;;12.63;100.00;101539.69;4167429;28;20027;-76
2023/06/30 01:46:37;;;;;;;3.38;1.13;;;13.30;99.90;;;12.68;100.00;101544.56;4167552;28;20029;-75
2023/06/30 01:48:40;;;;;;;6.22;1.95;;;13.30;99.90;;;12.62;100.00;101543.34;4168499;28;20025;-76
2023/06/30 01:50:41;;;;;;;2.63;1.23;;;13.20;99.90;;;12.63;100.00;101546.84;4168961;28;20056;-75
2023/06/30 01:52:42;;;;;;;7.45;1.50;;;13.20;99.90;;;12.59;100.00;101542.81;4168704;28;20489;-75
2023/06/30 01:54:43;;;;;;;5.25;1.30;;;13.20;99.90;;;12.59;100.00;101543.66;4167450;28;20508;-76
2023/06/30 01:56:49;;;;;;;5.85;1.75;;;13.20;99.90;;;12.52;100.00;101536.44;4168554;28;20029;-76
2023/06/30 01:58:49;;;;;;;4.45;1.30;;;13.20;99.90;;;12.44;100.00;101533.72;4168568;28;20014;-76
2023/06/30 02:00:50;;;;;;;4.13;2.03;;;13.10;99.90;;;12.51;100.00;101548.03;4167784;28;20013;-75
2023/06/30 02:02:51;;;;;;;5.53;2.13;;;13.10;99.90;;;12.45;100.00;101554.75;4167164;28;20436;-75
2023/06/30 02:04:52;;;;;;;3.85;1.20;;;13.10;99.90;;;12.49;100.00;101542.03;4183736;28;20029;-76
2023/06/30 02:06:55;;;;;;;7.28;1.52;;;13.10;99.90;;;12.44;100.00;101549.59;4162627;28;20021;-76
2023/06/30 02:08:55;;;;;;;6.78;1.40;;;13.00;99.90;;;12.41;100.00;101545.44;4180949;28;20063;-75
2023/06/30 02:10:56;;;;;;;5.70;1.73;;;13.00;99.90;;;12.42;100.00;101559.50;4151248;28;20037;-75
2023/06/30 02:12:58;;;;;;;7.25;2.25;;;13.00;99.90;;;12.39;100.00;101559.78;4168524;28;20029;-76
2023/06/30 02:14:58;;;;;;;4.95;1.50;;;13.00;99.90;;;12.36;100.00;101557.44;4168460;28;20037;-75
2023/06/30 02:16:59;;;;;;;6.55;1.75;;;12.90;99.90;;;12.34;100.00;101559.38;4166965;28;20401;-75
2023/06/30 02:19:00;;;;;;;6.20;2.03;;;12.90;99.90;;;12.32;100.00;101564.00;4174361;28;20064;-75
2023/06/30 02:21:01;;;;;;;3.90;1.63;;;12.90;99.90;;;12.29;100.00;101562.50;4188460;28;20039;-76
2023/06/30 02:23:02;;;;;;;6.13;1.98;;;12.90;99.90;;;12.28;100.00;101557.31;4170434;28;20025;-75
2023/06/30 02:25:03;;;;;;;6.00;1.25;;;12.80;99.90;;;12.21;100.00;101551.81;4170366;28;20021;-76
2023/06/30 02:27:06;;;;;;;3.90;1.42;;;12.80;99.90;;;12.19;100.00;101553.75;4170673;28;20041;-75
2023/06/30 02:29:07;;;;;;;7.07;1.90;;;12.80;99.90;;;12.24;100.00;101554.16;4170653;28;20057;-75
2023/06/30 02:31:08;;;;;;;3.80;1.52;;;12.80;99.90;;;12.19;100.00;101562.53;4170566;28;20436;-76
2023/06/30 02:33:09;;;;;;;3.50;1.52;;;12.80;99.90;;;12.18;100.00;101554.75;4187825;28;20120;-76
2023/06/30 02:35:10;;;;;;;8.38;1.88;;;12.80;99.90;;;12.18;100.00;101557.41;4170097;28;20034;-76
2023/06/30 02:37:11;;;;;;;4.47;1.48;;;12.80;99.90;;;12.13;100.00;101555.19;4187911;28;20021;-76
2023/06/30 02:39:11;;;;;;;3.72;1.45;;;12.80;99.90;;;12.15;100.00;101555.88;4170319;28;20076;-76
2023/06/30 02:41:12;;;;;;;7.20;2.08;;;12.80;99.90;;;12.11;100.00;101556.31;4170317;28;20026;-76
2023/06/30 02:43:13;;;;;;;5.82;1.60;;;12.70;99.90;;;12.12;100.00;101553.53;4170228;28;20021;-75
2023/06/30 02:45:14;;;;;;;4.40;2.25;;;12.70;99.90;;;12.06;100.00;101556.75;4188044;28;20033;-76
2023/06/30 02:47:15;;;;;;;5.60;1.50;;;12.70;99.90;;;12.06;100.00;101548.00;4170315;28;20073;-75
2023/06/30 02:49:16;;;;;;;4.80;1.85;;;12.70;99.90;;;12.05;100.00;101557.72;4187657;28;20025;-75
2023/06/30 02:51:17;;;;;;;5.63;1.95;;;12.70;99.90;;;12.04;100.00;101556.06;4187731;28;20080;-75
2023/06/30 02:53:18;;;;;;;4.35;1.55;;;12.60;99.90;;;12.04;100.00;101558.69;4186779;28;20028;-75
2023/06/30 02:55:19;;;;;;;8.20;2.15;;;12.60;99.90;;;11.96;100.00;101550.66;4187805;28;20036;-76
2023/06/30 02:57:21;;;;;;;3.55;1.38;;;12.60;99.90;;;11.97;100.00;101557.63;4187862;28;20025;-75
2023/06/30 02:59:22;;;;;;;4.82;1.60;;;12.60;99.90;;;11.92;100.00;101543.16;4169998;28;20032;-76
2023/06/30 03:01:24;;;;;;;4.90;1.60;;;12.60;99.90;;;11.92;100.00;101548.44;4170233;28;20022;-75
2023/06/30 03:03:25;;;;;;;4.60;1.48;;;12.50;99.90;;;11.91;100.00;101539.69;4169966;28;20026;-76
2023/06/30 03:05:26;;;;;;;9.60;1.70;;;12.50;99.90;;;11.92;100.00;101546.63;4203177;28;20451;-75
2023/06/30 03:07:26;;;;;;;7.38;1.70;;;12.50;99.90;;;11.92;100.00;101545.78;4179196;28;20091;-76
2023/06/30 03:09:27;;;;;;;5.32;2.10;;;12.50;99.90;;;11.90;100.00;101539.81;4170057;28;20030;-75
2023/06/30 03:11:28;;;;;;;4.22;2.00;;;12.50;99.90;;;11.76;100.00;101527.94;4169895;28;20029;-76
2023/06/30 03:13:29;;;;;;;5.10;1.85;;;12.50;99.90;;;11.84;100.00;101546.53;4169996;28;20061;-75
2023/06/30 03:15:30;;;;;;;4.95;1.80;;;12.50;99.90;;;11.84;100.00;101546.53;4169535;28;20112;-76
2023/06/30 03:17:32;;;;;;;6.20;1.50;;;12.50;99.90;;;11.80;100.00;101544.34;4169703;28;20038;-75
2023/06/30 03:19:32;;;;;;;5.70;1.42;;;12.40;99.90;;;11.81;100.00;101549.47;4169178;28;20045;-76
2023/06/30 03:21:33;;;;;;;6.90;1.92;;;12.40;99.90;;;11.80;100.00;101539.84;4169760;28;20032;-75
2023/06/30 03:23:34;;;;;;;9.50;2.30;;;12.40;99.90;;;11.67;100.00;101518.19;4187075;28;20021;-75
2023/06/30 03:25:35;;;;;;;4.57;1.30;;;12.40;99.90;;;11.78;100.00;101544.47;4187824;28;20123;-75
2023/06/30 03:27:36;;;;;;;5.35;1.20;;;12.40;99.90;;;11.74;100.00;101534.34;4187147;28;20029;-76
2023/06/30 03:29:37;;;;;;;10.18;2.08;;;12.40;99.90;;;11.71;100.00;101538.06;4169209;28;20061;-76
2023/06/30 03:31:37;;;;;;;6.10;1.80;;;12.40;99.90;;;11.73;100.00;101533.50;4169555;28;20034;-76
2023/06/30 03:33:38;;;;;;;4.07;1.63;;;12.40;99.90;;;11.75;100.00;101536.81;4169257;28;20029;-76
2023/06/30 03:35:39;;;;;;;2.90;1.23;;;12.30;99.90;;;11.74;100.00;101540.44;4187131;28;20052;-76
2023/06/30 03:37:40;;;;;;;4.13;1.35;;;12.30;99.90;;;11.72;100.00;101529.19;4187025;28;20056;-76
2023/06/30 03:39:41;;;;;;;6.43;1.60;;;12.30;99.90;;;11.69;100.00;101526.78;4187042;28;20029;-76
2023/06/30 03:41:42;;;;;;;3.70;1.63;;;12.30;99.90;;;11.71;100.00;101530.16;4169208;28;20489;-75
2023/06/30 03:43:42;;;;;;;7.65;1.95;;;12.30;99.90;;;11.66;100.00;101525.28;4187090;28;20100;-76
2023/06/30 03:45:43;;;;;;;3.30;1.55;;;12.30;99.90;;;11.71;100.00;101538.06;4169292;28;20021;-75
2023/06/30 03:47:44;;;;;;;4.65;1.55;;;12.30;99.90;;;11.67;100.00;101528.75;4186875;28;20392;-76
2023/06/30 03:49:45;;;;;;;4.05;1.40;;;12.30;99.90;;;11.71;100.00;101543.38;4169024;28;20034;-75
2023/06/30 03:51:46;;;;;;;6.35;1.60;;;12.30;99.90;;;11.64;100.00;101529.03;4186909;28;20025;-75
2023/06/30 03:53:47;;;;;;;4.63;1.63;;;12.30;99.90;;;11.64;100.00;101526.41;4186903;28;20044;-76
2023/06/30 03:55:47;;;;;;;5.40;1.40;;;12.30;99.90;;;11.66;100.00;101532.38;4169123;28;20022;-76
2023/06/30 03:57:48;;;;;;;4.80;1.98;;;12.30;99.90;;;11.61;100.00;101526.69;4168773;28;20080;-76
2023/06/30 03:59:49;;;;;;;5.78;2.05;;;12.30;99.90;;;11.57;100.00;101522.66;4186780;28;20500;-75
2023/06/30 04:01:50;;;;;;;5.75;1.48;;;12.20;99.90;;;11.60;100.00;101525.00;4186503;28;20036;-76
2023/06/30 04:03:52;;;;;;;4.80;1.40;;;12.20;99.90;;;11.55;100.00;101517.53;4186381;28;20051;-76
2023/06/30 04:05:54;;;;;;;5.50;1.50;;;12.20;99.90;;;11.59;100.00;101531.25;4186607;28;20029;-76
2023/06/30 04:07:54;;;;;;;5.40;1.27;;;12.20;99.90;;;11.60;100.00;101525.00;4186684;28;20087;-75
2023/06/30 04:09:55;;;;;;;7.10;1.95;;;12.20;99.90;;;11.59;100.00;101532.09;4185303;28;20025;-75
2023/06/30 04:11:56;;;;;;;4.80;1.23;;;12.20;99.90;;;11.60;100.00;101527.66;4168775;28;20026;-76
2023/06/30 04:14:01;;;;;;;3.85;1.50;;;12.20;99.90;;;11.61;100.00;101529.34;4186378;28;20035;-76
2023/06/30 04:16:03;;;;;;;4.95;1.42;;;12.20;99.90;;;11.55;100.00;101519.34;4169308;28;20021;-76
2023/06/30 04:18:04;;;;;;;5.55;1.33;;;12.20;99.90;;;11.63;100.00;101532.66;4151838;28;20033;-76
2023/06/30 04:20:09;;;;;;;4.90;1.50;;;12.20;99.90;;;11.62;100.00;101523.88;4186562;28;20041;-76
2023/06/30 04:22:10;;;;;;;3.08;1.30;;;12.20;99.90;;;11.60;100.00;101520.56;4186240;28;20052;-75
2023/06/30 04:24:11;;;;;;;6.07;1.40;;;12.20;99.90;;;11.57;100.00;101520.00;4168205;28;20018;-75
2023/06/30 04:26:12;;;;;;;3.42;1.48;;;12.20;99.90;;;11.61;100.00;101524.88;4193972;28;20032;-76
2023/06/30 04:28:12;;;;;;;5.28;1.85;;;12.20;99.90;;;11.61;100.00;101526.69;4186258;28;20020;-75
2023/06/30 04:30:14;;;;;;;4.22;1.25;;;12.20;99.90;;;11.57;100.00;101523.50;4186084;28;20028;-76
2023/06/30 04:32:14;;;;;;;3.30;1.30;;;12.20;99.90;;;11.61;100.00;101527.53;4168374;28;20087;-75
2023/06/30 04:34:15;;;;;;;3.83;1.77;;;12.20;99.90;;;11.61;100.00;101527.53;4185497;28;20472;-75
2023/06/30 04:36:17;;;;;;;5.53;1.83;;;12.20;99.90;;;11.64;100.00;101526.41;4186080;28;20017;-75
2023/06/30 04:38:19;;;;;;;3.38;1.20;;;12.20;99.90;;;11.62;100.00;101521.25;4186142;28;20040;-75
2023/06/30 04:40:20;;;;;;;4.97;1.92;;;12.30;99.90;;;11.72;100.00;101537.13;4168128;28;20017;-76
2023/06/30 04:42:21;;;;;;;3.90;1.60;;;12.30;99.90;;;11.59;100.00;101508.31;4201133;28;20503;-75
2023/06/30 04:44:22;;;;;;;3.53;1.40;;;12.30;99.90;;;11.74;100.00;101527.22;4185877;28;20029;-75
2023/06/30 04:46:25;;;;;;;5.18;1.15;;;12.30;99.90;;;11.82;100.00;101529.16;4184562;28;20029;-75
2023/06/30 04:48:25;;;;;;;3.30;1.63;;;12.40;99.90;;;11.90;100.00;101531.91;4168460;28;20587;-75
2023/06/30 04:50:26;;;;;;;3.42;1.38;;;12.40;99.90;;;11.94;100.00;101536.75;4185904;28;20029;-75
2023/06/30 04:52:28;;;;;;;4.68;1.45;;;12.50;99.90;;;11.95;100.00;101527.84;4151748;28;20030;-75
2023/06/30 04:54:30;;;;;;;5.60;1.60;;;12.50;99.90;;;12.01;100.00;101529.06;4168077;28;20517;-76
2023/06/30 04:56:31;;;;;;;3.42;1.48;;;12.50;99.90;;;11.97;100.00;101514.50;4184671;28;20074;-75
2023/06/30 04:58:32;;;;;;;3.03;1.30;;;12.60;99.90;;;12.08;100.00;101527.50;4168144;28;20029;-76
2023/06/30 05:00:33;;;;;;;3.45;1.27;;;12.60;99.90;;;12.15;100.00;101534.72;4168081;28;20018;-75
2023/06/30 05:02:34;;;;;;;2.97;1.20;;;12.70;99.90;;;12.17;100.00;101532.75;4185510;28;20025;-75
2023/06/30 05:04:35;;;;;;;6.78;1.20;;;12.70;99.90;;;12.23;100.00;101541.06;4200854;28;20039;-76
2023/06/30 05:06:36;;;;;;;3.90;1.20;;;12.70;99.90;;;12.24;100.00;101534.81;4185659;28;20033;-75
2023/06/30 05:08:36;;;;;;;6.72;1.27;;;12.80;99.90;;;12.19;100.00;101508.78;4168011;28;20092;-75
2023/06/30 05:10:37;;;;;;;4.45;1.83;;;12.80;99.90;;;12.32;100.00;101519.88;4167964;28;20025;-75
2023/06/30 05:12:38;;;;;;;3.80;1.27;;;12.90;99.90;;;12.43;100.00;101526.75;4151608;28;20058;-76
2023/06/30 05:14:39;;;;;;;7.82;2.08;;;12.90;99.90;;;12.50;100.00;101533.13;4185573;28;20037;-75
2023/06/30 05:16:40;;;;;;;3.78;1.25;;;13.00;99.90;;;12.61;100.00;101535.53;4167808;28;20036;-75
2023/06/30 05:18:41;;;;;;;5.95;1.60;;;13.10;99.90;;;12.65;100.00;101531.63;4184977;28;20105;-75
2023/06/30 05:20:42;;;;;;;4.53;1.35;;;13.10;99.90;;;12.71;100.00;101531.88;4185725;28;20025;-75
2023/06/30 05:22:43;;;;;;;3.15;1.23;;;13.10;99.90;;;12.70;100.00;101524.06;4151289;28;20014;-75
2023/06/30 05:24:44;;;;;;;6.15;1.63;;;13.20;99.90;;;12.77;100.00;101533.06;4151294;28;20421;-75
2023/06/30 05:26:45;;;;;;;5.95;1.30;;;13.30;99.90;;;12.83;100.00;101529.81;4167551;28;20034;-75
2023/06/30 05:28:45;;;;;;;5.40;1.50;;;13.30;99.90;;;12.90;100.00;101540.66;4167759;28;20029;-75
2023/06/30 05:30:46;;;;;;;4.63;1.35;;;13.30;99.90;;;12.94;100.00;101540.19;4185637;28;20029;-75
2023/06/30 05:32:47;;;;;;;5.40;1.67;;;13.40;99.90;;;12.99;100.00;101540.53;4167668;28;20037;-75
2023/06/30 05:34:49;;;;;;;5.47;1.10;;;13.40;99.90;;;13.05;100.00;101537.28;4185054;28;20496;-75
2023/06/30 05:36:50;;;;;;;4.75;1.15;;;13.50;99.90;;;13.12;100.00;101537.53;4185098;28;20033;-75
2023/06/30 05:38:51;;;;;;;7.63;1.83;;;13.50;99.90;;;13.18;100.00;101539.59;4167680;28;20021;-75
2023/06/30 05:40:52;;;;;;;4.88;1.25;;;13.60;99.90;;;13.25;100.00;101541.50;4185415;28;20028;-76
2023/06/30 05:42:52;;;;;;;8.20;1.73;;;13.60;99.90;;;13.30;100.00;101539.19;4167430;28;20020;-76
2023/06/30 05:44:53;;;;;;;6.05;1.23;;;13.70;99.90;;;13.32;100.00;101541.69;4185108;28;20025;-75
2023/06/30 05:46:54;;;;;;;2.90;1.10;;;13.70;99.90;;;13.34;100.00;101542.38;4185251;28;20029;-76
2023/06/30 05:48:55;;;;;;;5.10;1.75;;;13.70;99.90;;;13.41;100.00;101534.66;4167304;28;20030;-75
2023/06/30 05:50:56;;;;;;;4.72;1.05;;;13.80;99.90;;;13.47;100.00;101540.13;4185169;28;20443;-75
2023/06/30 05:52:57;;;;;;;2.15;1.15;;;13.90;99.90;;;13.53;100.00;101541.34;4184001;28;20025;-76
2023/06/30 05:54:59;;;;;;;4.47;1.15;;;13.90;99.90;;;13.59;100.00;101546.03;4167549;28;20132;-76
2023/06/30 05:57:00;;;;;;;6.45;1.70;;;14.00;99.90;;;13.62;100.00;101538.56;4185133;28;20380;-76
2023/06/30 05:59:01;;;;;;;3.75;1.20;;;14.10;99.90;;;13.71;100.00;101553.56;4185399;28;20029;-76
2023/06/30 06:01:01;;;;;;;5.88;1.40;;;14.10;99.90;;;13.82;100.00;101547.16;4184961;28;20025;-75
2023/06/30 06:03:03;;;;;;;4.10;0.93;;;14.20;99.90;;;13.92;100.00;101539.91;4184892;28;20029;-75
2023/06/30 06:05:04;;;;;;;5.20;1.02;;;14.30;99.90;;;14.03;100.00;101537.00;4167430;28;20028;-76
2023/06/30 06:07:05;;;;;;;4.20;1.38;;;14.40;99.90;;;14.03;100.00;101534.34;4167489;28;20416;-76
2023/06/30 06:09:06;;;;;;;4.40;1.20;;;14.50;99.90;;;14.10;100.00;101538.00;4167221;28;20036;-75
2023/06/30 06:11:07;;;;;;;6.72;1.02;;;14.50;99.90;;;14.16;100.00;101536.53;4185296;28;20037;-75
2023/06/30 06:13:08;;;;;;;4.15;1.00;;;14.60;99.90;;;14.24;100.00;101529.47;4185002;28;20032;-75
2023/06/30 06:15:09;;;;;;;11.35;1.80;;;14.70;99.90;;;14.34;100.00;101538.13;4185032;28;20029;-75
2023/06/30 06:17:10;;;;;;;8.55;2.08;;;14.80;99.90;;;14.45;100.00;101537.03;4167208;28;20025;-75
2023/06/30 06:19:14;;;;;;;2.45;1.10;;;14.90;99.90;;;14.46;100.00;101516.59;4166831;28;20112;-76
2023/06/30 06:21:17;;;;;;;6.50;1.20;;;14.90;99.90;;;14.67;100.00;101530.25;4167555;28;20099;-76
2023/06/30 06:23:18;;;;;;;5.05;1.20;;;15.10;99.90;;;14.74;100.00;101536.56;4167017;28;20072;-75
2023/06/30 06:25:19;;;;;;;3.95;1.63;;;15.20;99.90;;;14.82;100.00;101536.56;4168361;28;20477;-75
2023/06/30 06:27:20;;;;;;;5.05;1.42;;;15.20;99.90;;;14.89;100.00;101540.25;4167223;28;20040;-75
2023/06/30 06:29:24;;;;;;;4.18;1.98;;;15.30;99.90;;;14.80;100.00;101523.47;4168346;28;20025;-75
2023/06/30 06:31:27;;;;;;;9.25;2.63;;;15.40;99.90;;;14.85;100.00;101525.63;4168354;28;20029;-75
2023/06/30 06:33:28;;;;;;;6.70;2.83;;;15.40;99.90;;;14.96;100.00;101552.69;4166864;28;20501;-76
2023/06/30 06:35:28;;;;;;;6.85;3.55;;;15.40;99.90;;;14.95;100.00;101540.44;4168390;28;20036;-76
2023/06/30 06:37:29;;;;;;;6.85;4.63;;;15.50;99.90;;;15.05;100.00;101540.28;4167264;28;20025;-75
2023/06/30 06:39:30;;;;;;;9.63;5.35;;;15.50;99.90;;;15.05;100.00;101529.66;4167077;28;20028;-76
2023/06/30 06:41:32;;;;;;;10.18;6.32;;;15.60;99.90;;;15.18;100.00;101529.13;4168180;28;20025;-76
2023/06/30 06:43:32;;;;;;;8.23;5.65;;;15.70;99.90;;;15.29;100.00;101547.41;4168279;28;20033;-76
2023/06/30 06:45:33;;;;;;;11.07;8.02;;;15.70;99.90;;;15.47;100.00;101540.13;4167259;28;20013;-75
2023/06/30 06:48:21;;;;;;;12.63;7.43;;;15.90;99.90;;;15.60;100.00;101544.91;4167027;28;20029;-75
2023/06/30 06:50:22;;;;;;;11.32;7.45;;;16.00;99.90;;;15.79;100.00;101544.53;4168246;28;20414;-76
2023/06/30 06:52:23;;;;;;;9.70;6.75;;;16.20;99.90;;;15.90;100.00;101525.53;4167182;28;20088;-75
2023/06/30 06:54:23;;;;;;;9.25;6.75;;;16.30;99.90;;;16.15;100.00;101532.44;4168064;28;20025;-76
2023/06/30 06:56:24;;;;;;;8.73;4.85;;;16.50;99.90;;;16.38;99.84;101530.66;4168135;28;20062;-76
2023/06/30 06:58:30;;;;;;;10.07;4.03;;;16.70;99.90;;;16.66;97.96;101538.19;4167062;28;20500;-75
2023/06/30 07:00:30;;;;;;;5.07;3.28;;;16.90;99.90;;;16.90;95.55;101535.38;4168258;28;20572;-75
2023/06/30 07:02:31;;;;;;;7.55;3.10;;;17.20;99.90;;;17.39;91.77;101535.78;4150643;28;20029;-75
2023/06/30 07:04:32;;;;;;;3.95;2.47;;;17.40;99.90;;;17.78;89.40;101543.59;4201207;28;20515;-75
2023/06/30 07:06:33;;;;;;;5.50;1.90;;;17.70;99.90;;;17.93;85.76;101534.56;4171165;28;20025;-75
2023/06/30 07:08:35;;;;;;;4.18;0.98;;;18.00;99.90;;;17.98;83.87;101540.19;4170146;28;20029;-75
2023/06/30 07:10:36;;;;;;;1.55;0.85;;;18.20;99.90;;;18.29;82.73;101545.31;4169688;28;20047;-76
2023/06/30 07:12:37;;;;;;;4.78;1.38;;;18.40;99.90;;;18.36;79.15;101538.22;4171134;28;20026;-75
2023/06/30 07:14:38;;;;;;;3.25;0.93;;;18.50;99.90;;;18.37;79.58;101536.38;4169808;28;20021;-76
2023/06/30 07:16:38;;;;;;;3.55;0.88;;;18.60;99.90;;;18.44;79.47;101543.44;4169670;28;20029;-75
2023/06/30 07:18:39;;;;;;;1.88;0.93;;;18.70;99.90;;;18.54;78.59;101551.19;4169403;28;20505;-76
2023/06/30 07:20:40;;;;;;;3.08;0.90;;;18.80;99.90;;;18.71;78.87;101549.94;4186615;28;20099;-76
2023/06/30 07:22:41;;;;;;;4.63;1.63;;;19.00;99.90;;;18.73;77.95;101529.19;4186210;28;20472;-75
2023/06/30 07:24:42;;;;;;;2.72;1.27;;;19.10;99.80;;;18.79;78.28;101542.63;4187261;28;20059;-76
2023/06/30 07:26:43;;;;;;;6.00;1.52;;;19.10;99.90;;;18.88;76.68;101551.34;4169980;28;20036;-75
2023/06/30 07:28:47;;;;;;;2.72;1.10;;;19.20;99.70;;;18.95;76.78;101546.06;4189604;28;20581;-75
2023/06/30 07:30:48;;;;;;;3.13;1.05;;;19.30;99.70;;;19.15;76.28;101557.78;4169677;28;20067;-76
2023/06/30 07:32:49;;;;;;;6.35;1.55;;;19.40;99.50;;;19.07;74.82;101550.72;4185554;28;20389;-76
2023/06/30 07:34:50;;;;;;;3.72;1.27;;;19.50;99.00;;;19.17;74.80;101555.75;4187224;28;20494;-76
2023/06/30 07:36:51;;;;;;;4.47;1.15;;;19.60;99.00;;;19.19;74.55;101543.00;4187078;28;20033;-76
2023/06/30 07:38:52;;;;;;;4.32;1.15;;;19.70;98.90;;;19.40;75.00;101547.53;4187112;28;20443;-75
2023/06/30 07:40:53;;;;;;;2.72;1.08;;;19.80;99.10;;;19.35;72.23;101537.41;4187064;28;20028;-76
2023/06/30 07:42:54;;;;;;;3.13;0.90;;;19.80;98.10;;;19.12;72.51;101548.28;4169236;28;20419;-76
2023/06/30 07:44:55;;;;;;;3.90;1.02;;;19.60;98.10;;;18.92;72.64;101546.47;4185651;28;20022;-76
2023/06/30 07:46:55;;;;;;;4.55;0.80;;;19.50;97.90;;;19.05;73.85;101551.94;4169323;28;20036;-75
2023/06/30 07:48:56;;;;;;;2.97;0.98;;;19.50;98.40;;;19.25;73.66;101555.63;4186781;28;20032;-76
2023/06/30 07:50:57;;;;;;;7.57;1.15;;;19.60;98.50;;;19.23;72.82;101549.63;4169145;28;20172;-76
2023/06/30 07:52:58;;;;;;;2.75;0.55;;;19.70;98.30;;;19.25;72.76;101536.88;4169044;28;20045;-75
2023/06/30 07:54:59;;;;;;;4.10;0.88;;;19.80;98.30;;;19.39;71.66;101549.38;4186900;28;20068;-76
2023/06/30 07:57:00;;;;;;;3.47;0.98;;;19.80;97.90;;;19.46;71.86;101546.75;4168849;28;20044;-76
2023/06/30 07:59:01;;;;;;;3.35;1.02;;;19.80;98.10;;;19.68;72.28;101549.19;4169084;28;20026;-75
2023/06/30 08:01:02;;;;;;;6.05;1.00;;;20.00;98.30;;;19.80;70.30;101549.47;4186617;28;20056;-76
2023/06/30 08:03:03;;;;;;;4.90;1.02;;;20.10;97.60;;;19.79;69.53;101545.16;4186571;28;20122;-75
2023/06/30 08:05:05;;;;;;;3.63;0.77;;;20.20;97.30;;;19.73;69.24;101524.50;4202294;28;20470;-75
2023/06/30 08:07:06;;;;;;;4.10;1.20;;;20.20;97.30;;;19.95;68.48;101547.47;4186671;28;20130;-76
2023/06/30 08:09:07;;;;;;;2.53;0.88;;;20.30;97.20;;;20.09;68.39;101545.72;4168994;28;20097;-75
2023/06/30 08:11:07;;;;;;;4.32;1.00;;;20.40;97.00;;;19.98;68.94;101548.97;4169008;28;20070;-76
2023/06/30 08:13:08;;;;;;;2.95;1.33;;;20.50;97.10;;;20.02;68.33;101547.53;4168930;28;20539;-75
2023/06/30 08:15:09;;;;;;;2.22;0.80;;;20.40;97.00;;;20.40;67.97;101538.03;4168368;28;20076;-75
2023/06/30 08:17:11;;;;;;;2.70;0.88;;;20.60;97.00;;;20.60;66.25;101532.75;4185803;28;20040;-76
2023/06/30 08:19:12;;;;;;;4.80;1.35;;;20.80;96.20;;;20.78;63.80;101533.84;4186217;28;20041;-75
2023/06/30 08:21:13;;;;;;;3.67;0.90;;;20.90;95.70;;;20.73;62.77;101530.91;4152242;28;20029;-76
2023/06/30 08:23:14;;;;;;;5.57;1.25;;;21.00;95.20;;;20.75;63.65;101531.56;4186361;28;20025;-75